Time;durP1;ratioP1;P1;durP2;ratioP2;P2;SDS_P1;SDS_P2;PMS_P1;PMS_P2;Temp;Humidity;BMP_temperature;BMP_pressure;BME280_temperature;BME280_humidity;BME280_pressure;Samples;Min_cycle;Max_cycle;Signal;HPM_P1;HPM_P2
2022/06/04 00:00:50;;;;;;;;;;;11.20;99.90;;;;;;5032090;28;20046;-75
2022/06/04 00:03:16;;;;;;;5.60;3.30;;;11.10;99.90;;;;;;5031119;28;19943;-75
2022/06/04 00:05:46;;;;;;;5.43;3.00;;;11.20;99.90;;;;;;5032126;28;20406;-75
2022/06/04 00:08:12;;;;;;;6.28;2.80;;;11.10;99.90;;;;;;5029646;28;20381;-75
2022/06/04 00:16:20;;;;;;;6.63;2.60;;;11.00;99.90;;;;;;5031186;28;20056;-76
2022/06/04 00:18:46;;;;;;;7.65;3.40;;;11.00;99.90;;;;;;5031208;28;20064;-76
2022/06/04 00:21:13;;;;;;;6.20;3.03;;;11.00;99.90;;;;;;5029082;28;20145;-76
2022/06/04 00:23:39;;;;;;;5.85;3.10;;;10.90;99.90;;;;;;5013426;28;20045;-76
2022/06/04 00:26:07;;;;;;;;;;;10.90;99.90;;;;;;5015292;28;20038;-76
2022/06/04 00:28:33;;;;;;;7.82;4.20;;;11.00;99.90;;;;;;5032047;28;19921;-76
2022/06/04 00:30:59;;;;;;;;;;;11.00;99.90;;;;;;5028072;28;20041;-76
2022/06/04 00:33:25;;;;;;;5.50;3.00;;;11.00;99.90;;;;;;5011617;28;19921;-76
2022/06/04 00:35:53;;;;;;;4.97;3.20;;;11.00;99.90;;;;;;4994978;28;20085;-76
2022/06/04 00:38:23;;;;;;;4.47;2.90;;;10.90;99.90;;;;;;5013205;28;20041;-76
2022/06/04 00:41:07;;;;;;;6.97;3.58;;;10.90;99.90;;;;;;5021973;28;20057;-76
2022/06/04 00:44:02;;;;;;;7.70;3.30;;;10.90;99.90;;;;;;5019546;28;20050;-73
2022/06/04 00:46:39;;;;;;;8.75;3.88;;;10.80;99.90;;;;;;5030880;28;20052;-73
2022/06/04 00:49:11;;;;;;;7.68;3.53;;;10.90;99.90;;;;;;5028002;28;20506;-73
2022/06/04 00:51:38;;;;;;;6.03;3.40;;;10.90;99.90;;;;;;5030942;28;20055;-73
2022/06/04 00:54:04;;;;;;;5.43;3.25;;;10.90;99.90;;;;;;5013957;28;20042;-73
2022/06/04 00:57:21;;;;;;;5.38;2.95;;;10.80;99.90;;;;;;5030287;28;20445;-73
2022/06/04 01:00:13;;;;;;;7.03;3.90;;;10.80;99.90;;;;;;4988444;28;20047;-73
2022/06/04 01:02:47;;;;;;;8.85;3.60;;;10.80;99.90;;;;;;5023122;28;20152;-73
2022/06/04 01:05:32;;;;;;;6.93;3.97;;;10.80;99.90;;;;;;5024736;28;20486;-73
2022/06/04 01:08:06;;;;;;;5.22;2.90;;;10.80;99.90;;;;;;5012356;28;20044;-73
2022/06/04 01:11:09;;;;;;;6.68;3.10;;;10.80;99.90;;;;;;5027524;28;20037;-73
2022/06/04 01:13:56;;;;;;;7.07;3.50;;;10.70;99.90;;;;;;5008122;28;20041;-76
2022/06/04 01:16:47;;;;;;;5.10;2.80;;;10.70;99.90;;;;;;5028896;28;20069;-76
2022/06/04 01:19:23;;;;;;;4.93;3.00;;;10.70;99.90;;;;;;5025695;28;20080;-76
2022/06/04 01:22:15;;;;;;;7.35;3.97;;;10.70;99.90;;;;;;5025527;28;20067;-76
2022/06/04 01:25:12;;;;;;;6.10;3.38;;;10.70;99.90;;;;;;5027773;28;20041;-73
2022/06/04 01:28:14;;;;;;;6.22;3.35;;;10.60;99.90;;;;;;5024766;28;20072;-72
2022/06/04 01:30:45;;;;;;;4.45;2.65;;;10.60;99.90;;;;;;5024698;28;20526;-73
2022/06/04 01:33:32;;;;;;;6.28;3.40;;;10.60;99.90;;;;;;5028491;28;20053;-73
2022/06/04 01:36:17;;;;;;;4.32;3.03;;;10.60;99.90;;;;;;5029017;28;20038;-73
2022/06/04 01:38:52;;;;;;;9.25;4.00;;;10.60;99.90;;;;;;5007677;28;20029;-73
2022/06/04 01:41:40;;;;;;;5.22;3.40;;;10.60;99.90;;;;;;5027055;28;20049;-71
2022/06/04 01:44:25;;;;;;;4.65;3.17;;;10.60;99.90;;;;;;5026621;28;20121;-71
2022/06/04 01:46:57;;;;;;;8.32;3.67;;;10.60;99.90;;;;;;5010270;28;20052;-72
2022/06/04 01:49:30;;;;;;;5.72;2.97;;;10.50;99.90;;;;;;5027148;28;20044;-72
2022/06/04 01:52:02;;;;;;;4.47;2.72;;;10.50;99.90;;;;;;5010569;28;20513;-72
2022/06/04 01:55:01;;;;;;;5.45;3.88;;;10.50;99.90;;;;;;5010217;28;20125;-72
2022/06/04 01:57:34;;;;;;;6.63;2.72;;;10.50;99.90;;;;;;5010275;28;20045;-72
2022/06/04 02:00:09;;;;;;;4.13;2.70;;;10.50;99.90;;;;;;5011184;28;20057;-72
2022/06/04 02:02:40;;;;;;;5.47;2.95;;;10.50;99.90;;;;;;5011261;28;20494;-73
2022/06/04 02:05:12;;;;;;;5.93;2.30;;;10.50;99.90;;;;;;5023574;28;20164;-75
2022/06/04 02:07:43;;;;;;;4.65;2.45;;;10.40;99.90;;;;;;5027811;28;20116;-75
2022/06/04 02:10:30;;;;;;;4.32;2.60;;;10.40;99.90;;;;;;5026124;28;20065;-75
2022/06/04 02:13:00;;;;;;;3.85;2.40;;;10.40;99.90;;;;;;5009928;28;20079;-72
2022/06/04 02:15:34;;;;;;;9.02;5.13;;;10.40;99.90;;;;;;5007418;28;20045;-72
2022/06/04 02:18:02;;;;;;;7.85;3.33;;;10.40;99.90;;;;;;5028143;28;20049;-72
2022/06/04 02:20:28;;;;;;;4.45;3.00;;;10.40;99.90;;;;;;5011086;28;20500;-72
2022/06/04 02:22:54;;;;;;;4.70;2.75;;;10.40;99.90;;;;;;5002159;28;20044;-71
2022/06/04 02:25:21;;;;;;;3.38;2.30;;;10.30;99.90;;;;;;5027623;28;20033;-71
2022/06/04 02:27:49;;;;;;;4.10;2.50;;;10.40;99.90;;;;;;5025806;28;20039;-71
2022/06/04 02:30:15;;;;;;;4.05;2.10;;;10.40;99.90;;;;;;5026781;28;20049;-76
2022/06/04 02:32:52;;;;;;;;;;;10.30;99.90;;;;;;5012106;28;20049;-75
2022/06/04 02:35:34;;;;;;;3.03;2.40;;;10.40;99.90;;;;;;5026732;28;20009;-75
2022/06/04 02:38:17;;;;;;;3.17;2.03;;;10.40;99.90;;;;;;5011048;28;20075;-75
2022/06/04 02:40:56;;;;;;;4.60;2.30;;;10.40;99.90;;;;;;5019380;28;20089;-74
2022/06/04 02:43:57;;;;;;;4.05;2.20;;;10.50;99.90;;;;;;5024415;28;20556;-74
2022/06/04 02:46:45;;;;;;;3.35;2.00;;;10.50;99.90;;;;;;5023253;28;20045;-74
2022/06/04 02:49:18;;;;;;;5.03;2.80;;;10.50;99.90;;;;;;5024248;28;20077;-75
2022/06/04 02:51:51;;;;;;;3.78;2.47;;;10.50;99.90;;;;;;5019938;28;20037;-75
2022/06/04 02:54:34;;;;;;;3.85;2.13;;;10.50;99.90;;;;;;5016965;28;20045;-75
2022/06/04 02:57:02;;;;;;;4.47;2.90;;;10.60;99.90;;;;;;5004584;28;20474;-72
2022/06/04 02:59:29;;;;;;;7.20;3.85;;;10.50;99.90;;;;;;5021573;28;20041;-71
2022/06/04 03:01:58;;;;;;;9.20;4.07;;;10.50;99.90;;;;;;5025190;28;20406;-71
2022/06/04 03:04:24;;;;;;;4.50;2.90;;;10.60;99.90;;;;;;5009896;28;20060;-71
2022/06/04 03:06:50;;;;;;;3.95;2.47;;;10.60;99.90;;;;;;5027674;28;20045;-72
2022/06/04 03:09:19;;;;;;;7.32;3.00;;;10.60;99.90;;;;;;5026251;28;20067;-72
2022/06/04 03:11:47;;;;;;;4.60;3.03;;;10.60;99.90;;;;;;5027572;28;20116;-72
2022/06/04 03:14:15;;;;;;;4.72;2.60;;;10.70;99.90;;;;;;5028559;28;20041;-72
2022/06/04 03:16:43;;;;;;;4.90;3.00;;;10.70;99.90;;;;;;5009497;28;20049;-73
2022/06/04 03:19:10;;;;;;;5.15;2.70;;;10.70;99.90;;;;;;5003382;28;20089;-71
2022/06/04 03:21:41;;;;;;;4.72;2.88;;;10.80;99.90;;;;;;5027220;28;20053;-71
2022/06/04 03:24:08;;;;;;;6.43;3.05;;;10.80;99.90;;;;;;5024919;28;20084;-71
2022/06/04 03:26:35;;;;;;;3.60;2.17;;;10.80;99.90;;;;;;5027511;28;20339;-71
2022/06/04 03:29:01;;;;;;;;;;;10.80;99.90;;;;;;5026721;28;20037;-71
2022/06/04 03:31:28;;;;;;;5.20;2.75;;;10.70;99.90;;;;;;5025105;28;20234;-71
2022/06/04 03:33:55;;;;;;;4.68;2.35;;;10.80;99.90;;;;;;5025562;28;20137;-71
2022/06/04 03:36:21;;;;;;;4.35;2.53;;;10.70;99.90;;;;;;5012745;28;20047;-72
2022/06/04 03:38:50;;;;;;;6.10;3.10;;;10.80;99.90;;;;;;5031042;28;20040;-71
2022/06/04 03:41:16;;;;;;;4.85;3.00;;;10.70;99.90;;;;;;5027557;28;20038;-73
2022/06/04 03:43:42;;;;;;;5.10;2.90;;;10.80;99.90;;;;;;5029187;28;20129;-73
2022/06/04 03:46:08;;;;;;;5.43;2.47;;;10.80;99.90;;;;;;5012291;28;20103;-70
2022/06/04 03:48:34;;;;;;;4.72;2.28;;;10.80;99.90;;;;;;5030530;28;20049;-75
2022/06/04 03:51:01;;;;;;;3.72;2.60;;;10.70;99.90;;;;;;5030613;28;20045;-75
2022/06/04 03:53:26;;;;;;;3.03;2.35;;;10.70;99.90;;;;;;5015205;28;20133;-75
2022/06/04 03:55:52;;;;;;;4.57;2.67;;;10.80;99.90;;;;;;5013090;28;20041;-75
2022/06/04 03:58:18;;;;;;;4.90;3.00;;;10.80;99.90;;;;;;5009999;28;20124;-75
2022/06/04 04:00:45;;;;;;;5.60;3.00;;;10.70;99.90;;;;;;4978500;28;20148;-75
2022/06/04 04:03:16;;;;;;;4.60;2.80;;;10.80;99.90;;;;;;4996316;28;20132;-75
2022/06/04 04:05:54;;;;;;;4.72;2.70;;;10.70;99.90;;;;;;5013078;28;20045;-76
2022/06/04 04:08:22;;;;;;;3.65;2.50;;;10.80;99.90;;;;;;5032728;28;20055;-76
2022/06/04 04:10:48;;;;;;;3.70;2.40;;;10.80;99.90;;;;;;5030684;28;20077;-75
2022/06/04 04:13:16;;;;;;;4.38;2.60;;;10.80;99.90;;;;;;5030013;28;20827;-75
2022/06/04 04:15:42;;;;;;;4.13;2.30;;;10.80;99.90;;;;;;5003741;28;20043;-76
2022/06/04 04:18:08;;;;;;;;;;;10.90;99.90;;;;;;5013614;28;20052;-75
2022/06/04 04:20:37;;;;;;;4.37;2.50;;;10.80;99.90;;;;;;5024179;28;19921;-76
2022/06/04 04:23:06;;;;;;;3.40;2.60;;;10.90;99.90;;;;;;5029016;28;20484;-75
2022/06/04 04:25:33;;;;;;;5.20;2.60;;;10.90;99.90;;;;;;5029226;28;20549;-75
2022/06/04 04:27:59;;;;;;;5.38;2.35;;;10.90;99.90;;;;;;5031817;28;20056;-75
2022/06/04 04:30:29;;;;;;;5.75;2.70;;;11.00;99.90;;;;;;5029162;28;20053;-75
2022/06/04 04:32:55;;;;;;;3.80;2.35;;;11.00;99.90;;;;;;5027181;28;20177;-74
2022/06/04 04:35:24;;;;;;;4.65;2.72;;;11.00;99.90;;;;;;5029278;28;20437;-74
2022/06/04 04:37:51;;;;;;;5.80;3.00;;;11.00;99.90;;;;;;5028916;28;20502;-74
2022/06/04 04:40:20;;;;;;;4.18;2.90;;;11.10;99.90;;;;;;5029195;28;20041;-75
2022/06/04 04:42:49;;;;;;;3.85;2.40;;;11.10;99.90;;;;;;5027643;28;20037;-74
2022/06/04 04:45:17;;;;;;;3.58;2.70;;;11.10;99.90;;;;;;5028286;28;20127;-74
2022/06/04 04:47:46;;;;;;;4.75;2.75;;;11.20;99.90;;;;;;5040491;28;20478;-74
2022/06/04 04:50:18;;;;;;;3.42;2.80;;;11.20;99.90;;;;;;5026896;28;20048;-74
2022/06/04 04:52:45;;;;;;;5.28;3.17;;;11.30;99.90;;;;;;5033028;28;20037;-74
2022/06/04 04:55:11;;;;;;;3.90;2.90;;;11.30;99.90;;;;;;5025917;28;20045;-74
2022/06/04 04:57:37;;;;;;;;;;;11.40;99.90;;;;;;5008002;28;20074;-74
2022/06/04 05:00:04;;;;;;;5.78;3.17;;;11.40;99.90;;;;;;5020917;28;19956;-74
2022/06/04 05:02:30;;;;;;;5.07;3.38;;;11.40;99.90;;;;;;5013260;28;20513;-75
2022/06/04 05:04:56;;;;;;;5.47;3.47;;;11.40;99.90;;;;;;5029601;28;20045;-74
2022/06/04 05:07:22;;;;;;;4.57;3.15;;;11.50;99.90;;;;;;5008989;28;20049;-74
2022/06/04 05:09:48;;;;;;;6.32;3.42;;;11.60;99.90;;;;;;5024389;28;20071;-72
2022/06/04 05:12:13;;;;;;;6.18;3.30;;;11.60;99.90;;;;;;5041770;28;20063;-72
2022/06/04 05:14:39;;;;;;;5.78;3.22;;;11.60;99.90;;;;;;5023684;28;20038;-72
2022/06/04 05:17:05;;;;;;;4.57;2.60;;;11.70;99.90;;;;;;5030929;28;20097;-73
2022/06/04 05:19:31;;;;;;;;;;;11.70;99.90;;;;;;5030273;28;20500;-73
2022/06/04 05:21:57;;;;;;;4.32;3.00;;;11.70;99.90;;;;;;5032021;28;19932;-72
2022/06/04 05:24:28;;;;;;;;;;;11.70;99.90;;;;;;4997610;28;20479;-72
2022/06/04 05:26:55;;;;;;;4.38;2.92;;;11.80;99.90;;;;;;5017467;28;20350;-72
2022/06/04 05:29:22;;;;;;;5.85;3.38;;;11.80;99.90;;;;;;5015942;28;20052;-73
2022/06/04 05:31:49;;;;;;;7.22;3.38;;;11.90;99.90;;;;;;5017664;28;20116;-71
2022/06/04 05:34:17;;;;;;;7.82;3.60;;;12.00;99.90;;;;;;5027949;28;20049;-72
2022/06/04 05:36:44;;;;;;;5.22;3.40;;;12.00;99.90;;;;;;5012638;28;20037;-71
2022/06/04 05:39:10;;;;;;;5.63;3.42;;;12.10;99.90;;;;;;5027576;28;20600;-71
2022/06/04 05:41:36;;;;;;;5.75;3.22;;;12.10;99.90;;;;;;5010747;28;20124;-73
2022/06/04 05:44:02;;;;;;;;;;;12.20;99.90;;;;;;5012414;28;20053;-71
2022/06/04 05:46:28;;;;;;;4.72;3.38;;;12.30;99.90;;;;;;5025463;28;19978;-71
2022/06/04 05:48:54;;;;;;;3.78;3.00;;;12.40;99.90;;;;;;5011956;28;20405;-71
2022/06/04 05:51:22;;;;;;;5.50;3.15;;;12.40;99.90;;;;;;5026473;28;20048;-70
2022/06/04 05:53:49;;;;;;;4.57;3.20;;;12.40;99.90;;;;;;5005392;28;20044;-73
2022/06/04 05:56:20;;;;;;;6.13;3.78;;;12.60;99.90;;;;;;5025921;28;20041;-75
2022/06/04 05:58:47;;;;;;;4.60;3.17;;;12.70;99.90;;;;;;5017695;28;20037;-75
2022/06/04 06:01:14;;;;;;;4.38;3.05;;;12.70;99.90;;;;;;5021049;28;20041;-78
2022/06/04 06:03:40;;;;;;;4.68;2.83;;;12.90;99.90;;;;;;5027025;28;20053;-76
2022/06/04 06:06:12;;;;;;;4.70;2.83;;;13.00;99.90;;;;;;5026973;28;20048;-76
2022/06/04 06:08:37;;;;;;;5.35;2.97;;;13.10;99.90;;;;;;5029161;28;20081;-76
2022/06/04 06:11:07;;;;;;;4.88;2.83;;;13.20;99.90;;;;;;5027103;28;20065;-76
2022/06/04 06:13:33;;;;;;;5.43;3.20;;;13.40;99.90;;;;;;5027370;28;20116;-75
2022/06/04 06:16:11;;;;;;;4.35;2.90;;;13.70;99.90;;;;;;5028435;28;20530;-75
2022/06/04 06:18:37;;;;;;;4.70;3.05;;;14.20;99.90;;;;;;5020558;28;20107;-74
2022/06/04 06:21:11;;;;;;;6.13;3.15;;;14.70;99.90;;;;;;5012590;28;20437;-75
2022/06/04 06:23:38;;;;;;;3.83;2.70;;;15.00;99.90;;;;;;5029521;28;20038;-74
2022/06/04 06:26:09;;;;;;;3.50;2.75;;;15.40;99.90;;;;;;5028267;28;20049;-75
2022/06/04 06:28:36;;;;;;;5.65;3.00;;;15.50;99.90;;;;;;5027172;28;20049;-75
2022/06/04 06:31:04;;;;;;;3.88;2.80;;;15.30;99.90;;;;;;5030435;28;20050;-74
2022/06/04 06:33:30;;;;;;;3.83;2.60;;;15.10;99.90;;;;;;4995362;28;20073;-75
2022/06/04 06:35:56;;;;;;;;;;;14.90;99.90;;;;;;5028512;28;20033;-74
2022/06/04 06:38:22;;;;;;;4.83;2.87;;;14.80;99.90;;;;;;5025032;28;19923;-74
2022/06/04 06:40:52;;;;;;;3.95;3.00;;;14.70;99.90;;;;;;5030485;28;20029;-75
2022/06/04 06:43:19;;;;;;;4.45;2.90;;;14.60;99.90;;;;;;5022135;28;20070;-75
2022/06/04 06:45:44;;;;;;;4.28;3.10;;;14.60;99.90;;;;;;5021689;28;20045;-75
2022/06/04 06:48:10;;;;;;;5.07;2.70;;;14.60;99.90;;;;;;5027761;28;20042;-75
2022/06/04 06:50:37;;;;;;;4.88;2.83;;;14.70;99.90;;;;;;5010649;28;20383;-75
2022/06/04 06:53:03;;;;;;;4.28;2.83;;;14.70;99.90;;;;;;5029153;28;20048;-76
2022/06/04 06:55:29;;;;;;;;;;;14.70;99.90;;;;;;5026488;28;20478;-77
2022/06/04 06:57:54;;;;;;;5.13;3.10;;;14.60;99.90;;;;;;5020533;28;20011;-75
2022/06/04 07:00:20;;;;;;;3.88;2.70;;;14.60;99.90;;;;;;5026622;28;20049;-77
2022/06/04 07:02:47;;;;;;;3.03;2.50;;;14.60;99.90;;;;;;5028822;28;20033;-78
2022/06/04 07:05:13;;;;;;;4.35;2.47;;;14.60;99.90;;;;;;5028747;28;20100;-77
2022/06/04 07:07:40;;;;;;;4.70;2.72;;;14.60;99.90;;;;;;5012291;28;20041;-78
2022/06/04 07:10:06;;;;;;;3.83;2.72;;;14.50;99.90;;;;;;5032332;28;20049;-78
2022/06/04 07:12:32;;;;;;;3.15;2.70;;;14.70;99.90;;;;;;5013671;28;20038;-76
2022/06/04 07:14:58;;;;;;;3.83;2.85;;;14.70;99.90;;;;;;5014975;28;20390;-75
2022/06/04 07:17:25;;;;;;;5.88;2.88;;;14.70;99.90;;;;;;5030430;28;20037;-76
2022/06/04 07:19:50;;;;;;;;;;;14.60;99.90;;;;;;5015286;28;20057;-75
2022/06/04 07:22:16;;;;;;;4.47;2.67;;;14.60;99.90;;;;;;5014601;28;19921;-75
2022/06/04 07:24:42;;;;;;;;;;;14.80;99.90;;;;;;5029981;28;20084;-78
2022/06/04 07:27:08;;;;;;;3.40;2.65;;;14.90;99.90;;;;;;5030176;28;19956;-76
2022/06/04 07:29:35;;;;;;;;;;;14.80;99.90;;;;;;5031829;28;20041;-72
2022/06/04 07:32:01;;;;;;;3.67;2.57;;;14.90;99.90;;;;;;5013607;28;19921;-71
2022/06/04 07:34:27;;;;;;;3.53;2.67;;;15.00;99.90;;;;;;5027695;28;20091;-72
2022/06/04 07:36:53;;;;;;;4.03;2.63;;;15.30;99.90;;;;;;5014591;28;20120;-72
2022/06/04 07:39:19;;;;;;;4.55;2.63;;;15.40;99.90;;;;;;5031018;28;20041;-71
2022/06/04 07:41:46;;;;;;;;;;;15.50;99.90;;;;;;5014083;28;20045;-71
2022/06/04 07:44:14;;;;;;;4.30;2.35;;;15.50;99.90;;;;;;5001755;28;19917;-71
2022/06/04 07:46:41;;;;;;;4.72;2.30;;;15.70;99.90;;;;;;5030399;28;20045;-72
2022/06/04 07:49:08;;;;;;;4.03;2.42;;;15.80;99.90;;;;;;5029697;28;20108;-72
2022/06/04 07:51:36;;;;;;;4.32;2.50;;;15.90;99.90;;;;;;5030761;28;20041;-72
2022/06/04 07:54:08;;;;;;;5.63;2.90;;;15.90;99.90;;;;;;5030702;28;20060;-72
2022/06/04 07:56:36;;;;;;;2.80;1.85;;;16.00;99.90;;;;;;5026357;28;20036;-72
2022/06/04 07:59:03;;;;;;;3.55;2.42;;;16.20;99.90;;;;;;5019371;28;20045;-72
2022/06/04 08:01:28;;;;;;;2.50;1.88;;;16.40;99.90;;;;;;5032502;28;20067;-72
2022/06/04 08:03:55;;;;;;;4.13;2.50;;;16.70;99.90;;;;;;4996534;28;20346;-73
2022/06/04 08:06:21;;;;;;;3.47;2.40;;;16.80;99.90;;;;;;5035578;28;20464;-72
2022/06/04 08:08:50;;;;;;;3.05;2.20;;;16.90;99.90;;;;;;5030407;28;20136;-73
2022/06/04 08:11:35;;;;;;;2.83;2.00;;;16.90;99.90;;;;;;5009673;28;20045;-72
2022/06/04 08:14:11;;;;;;;3.28;1.98;;;17.10;99.90;;;;;;5009518;28;20453;-73
2022/06/04 08:16:40;;;;;;;3.70;2.20;;;17.30;99.90;;;;;;5033888;28;20045;-73
2022/06/04 08:19:06;;;;;;;2.08;1.70;;;17.50;99.90;;;;;;5034280;28;21267;-72
2022/06/04 08:21:33;;;;;;;;;;;17.90;99.90;;;;;;5021518;28;20048;-72
2022/06/04 08:23:58;;;;;;;3.75;2.15;;;18.10;99.90;;;;;;5049118;28;20371;-72
2022/06/04 08:26:24;;;;;;;;;;;18.30;99.90;;;;;;5050313;28;20094;-73
2022/06/04 08:28:50;;;;;;;2.25;1.70;;;18.50;99.90;;;;;;5015203;28;19929;-73
2022/06/04 08:31:16;;;;;;;2.72;1.80;;;18.70;99.90;;;;;;5033749;28;20064;-72
2022/06/04 08:33:42;;;;;;;;;;;18.50;99.90;;;;;;5035904;28;20498;-72
2022/06/04 08:36:10;;;;;;;3.17;1.92;;;18.70;99.90;;;;;;5035329;28;19967;-73
2022/06/04 08:38:36;;;;;;;1.73;1.40;;;18.80;99.90;;;;;;5028946;28;20041;-72
2022/06/04 08:41:05;;;;;;;2.50;1.85;;;18.80;99.90;;;;;;5031085;28;20537;-72
2022/06/04 08:44:12;;;;;;;3.13;1.90;;;18.60;99.90;;;;;;5013936;28;20037;-72
2022/06/04 08:46:52;;;;;;;3.13;1.90;;;18.80;99.90;;;;;;5047152;28;20052;-72
2022/06/04 08:49:34;;;;;;;4.25;2.00;;;18.50;99.90;;;;;;5016384;28;20509;-72
2022/06/04 08:52:19;;;;;;;2.42;1.73;;;18.60;99.90;;;;;;5029074;28;20057;-73
2022/06/04 08:57:51;;;;;;;2.03;1.52;;;18.70;99.90;;;;;;5002067;28;20405;-72
2022/06/04 09:00:30;;;;;;;2.50;1.80;;;18.80;99.90;;;;;;5008032;28;20057;-72
2022/06/04 09:02:59;;;;;;;2.10;1.65;;;18.80;99.90;;;;;;5010558;28;20045;-72
2022/06/04 09:05:37;;;;;;;3.15;1.65;;;18.90;99.90;;;;;;5023984;28;20057;-71
2022/06/04 09:08:11;;;;;;;3.53;2.00;;;18.90;99.40;;;;;;5010386;28;20057;-70
2022/06/04 09:10:42;;;;;;;3.13;1.70;;;18.60;99.10;;;;;;5010269;28;20046;-72
2022/06/04 09:13:27;;;;;;;2.25;1.65;;;18.70;99.90;;;;;;5003002;28;20053;-72
2022/06/04 09:15:57;;;;;;;2.85;1.75;;;18.50;98.90;;;;;;5014435;28;20076;-72
2022/06/04 09:18:35;;;;;;;3.05;1.65;;;18.60;99.90;;;;;;5029811;28;20050;-72
2022/06/04 09:21:04;;;;;;;2.38;1.65;;;18.50;99.70;;;;;;5029831;28;20136;-72
2022/06/04 09:23:43;;;;;;;4.10;1.92;;;18.10;98.50;;;;;;5029665;28;20506;-72
2022/06/04 09:26:15;;;;;;;3.45;1.70;;;17.90;99.90;;;;;;5014332;28;20045;-73
2022/06/04 09:29:14;;;;;;;2.83;1.67;;;17.80;99.90;;;;;;5019717;28;20104;-72
2022/06/04 09:31:55;;;;;;;4.47;1.90;;;17.70;99.90;;;;;;5009492;28;20042;-72
2022/06/04 09:34:30;;;;;;;4.93;2.00;;;17.60;99.90;;;;;;5013103;28;20045;-72
2022/06/04 09:36:57;;;;;;;4.03;1.77;;;17.50;99.90;;;;;;5029091;28;20498;-72
2022/06/04 09:39:42;;;;;;;2.22;1.83;;;17.50;99.90;;;;;;5010299;28;20049;-72
2022/06/04 09:42:11;;;;;;;2.72;1.90;;;18.00;99.90;;;;;;5003983;28;20089;-72
2022/06/04 09:44:48;;;;;;;3.03;2.00;;;18.40;99.90;;;;;;5024770;28;20041;-71
2022/06/04 09:47:19;;;;;;;2.13;1.75;;;18.30;99.90;;;;;;5027865;28;20045;-72
2022/06/04 09:49:55;;;;;;;3.58;1.80;;;18.20;99.90;;;;;;5029283;28;20049;-72
2022/06/04 09:52:42;;;;;;;2.63;1.70;;;18.20;99.90;;;;;;5029355;28;20098;-73
2022/06/04 09:55:16;;;;;;;3.42;1.60;;;18.20;99.60;;;;;;5024521;28;20128;-73
2022/06/04 09:57:43;;;;;;;3.15;1.65;;;18.30;99.90;;;;;;5018780;28;20366;-72
2022/06/04 10:00:21;;;;;;;2.92;1.77;;;18.50;98.20;;;;;;5016231;28;20050;-72
2022/06/04 10:03:14;;;;;;;2.80;1.73;;;18.90;99.10;;;;;;5013140;28;20053;-71
2022/06/04 10:05:56;;;;;;;2.40;1.63;;;19.20;98.60;;;;;;5023275;28;20045;-72
2022/06/04 10:08:24;;;;;;;4.63;1.77;;;19.20;97.00;;;;;;5029071;28;20145;-72
2022/06/04 10:10:57;;;;;;;3.38;1.60;;;19.40;98.90;;;;;;5045550;28;20099;-72
2022/06/04 10:13:45;;;;;;;2.92;1.80;;;19.50;97.90;;;;;;5029279;28;20029;-72
2022/06/04 10:16:25;;;;;;;3.20;1.90;;;19.70;99.20;;;;;;5028278;28;20506;-72
2022/06/04 10:18:55;;;;;;;4.07;2.30;;;19.60;99.00;;;;;;5028769;28;20479;-72
2022/06/04 10:21:25;;;;;;;4.38;1.70;;;19.60;98.30;;;;;;5024483;28;20088;-72
2022/06/04 10:23:54;;;;;;;3.15;2.13;;;19.60;98.10;;;;;;5027116;28;20049;-72
2022/06/04 10:26:29;;;;;;;4.53;1.98;;;19.70;97.00;;;;;;5016729;28;20084;-72
2022/06/04 10:29:07;;;;;;;3.15;2.00;;;19.70;97.70;;;;;;5028679;28;20525;-72
2022/06/04 10:31:36;;;;;;;2.90;1.80;;;19.70;98.30;;;;;;5027621;28;20128;-72
2022/06/04 10:34:36;;;;;;;3.00;1.75;;;19.80;97.80;;;;;;5028989;28;20060;-71
2022/06/04 10:37:10;;;;;;;2.50;1.73;;;20.00;98.00;;;;;;5034531;28;20123;-72
2022/06/04 10:39:51;;;;;;;3.78;2.00;;;20.20;96.50;;;;;;5028726;28;20044;-73
2022/06/04 10:42:28;;;;;;;3.22;1.70;;;20.30;97.20;;;;;;5030412;28;20045;-72
2022/06/04 10:45:03;;;;;;;4.93;1.80;;;20.60;97.40;;;;;;5026408;28;20049;-72
2022/06/04 10:47:35;;;;;;;3.67;2.05;;;20.70;96.60;;;;;;5026286;28;20076;-76
2022/06/04 10:50:25;;;;;;;2.42;1.80;;;20.40;97.30;;;;;;5033828;28;20384;-76
2022/06/04 10:52:58;;;;;;;3.13;1.90;;;20.40;96.40;;;;;;5033237;28;20045;-76
2022/06/04 10:55:56;;;;;;;3.38;1.88;;;20.40;96.00;;;;;;5017851;28;20045;-76
2022/06/04 10:58:29;;;;;;;2.33;1.92;;;20.60;96.90;;;;;;5013612;28;20141;-75
2022/06/04 11:01:26;;;;;;;2.95;1.80;;;20.10;97.10;;;;;;5028488;28;20057;-75
2022/06/04 11:04:03;;;;;;;3.55;2.00;;;20.60;97.40;;;;;;5027286;28;20394;-75
2022/06/04 11:06:38;;;;;;;2.85;1.50;;;20.50;96.00;;;;;;5029943;28;20045;-75
2022/06/04 11:09:16;;;;;;;2.17;1.52;;;20.70;96.20;;;;;;5007708;28;20061;-75
2022/06/04 11:11:52;;;;;;;3.92;2.03;;;20.70;96.10;;;;;;5024224;28;20398;-76
2022/06/04 11:14:45;;;;;;;3.33;2.05;;;20.80;96.00;;;;;;5032087;28;20067;-76
2022/06/04 11:17:34;;;;;;;3.08;1.67;;;20.70;96.20;;;;;;5016203;28;20049;-76
2022/06/04 11:20:22;;;;;;;2.80;1.60;;;20.90;96.20;;;;;;5020319;28;20500;-76
2022/06/04 11:22:58;;;;;;;2.63;1.50;;;21.10;95.90;;;;;;5009224;28;20157;-76
2022/06/04 11:25:28;;;;;;;2.95;1.77;;;21.30;95.40;;;;;;5007384;28;20111;-75
2022/06/04 11:27:58;;;;;;;2.95;1.60;;;21.20;94.80;;;;;;5029340;28;20038;-77
2022/06/04 11:30:56;;;;;;;4.40;2.22;;;21.10;95.70;;;;;;5023686;28;20045;-77
2022/06/04 11:33:30;;;;;;;2.58;1.90;;;21.00;95.20;;;;;;5029929;28;20410;-76
2022/06/04 11:36:18;;;;;;;3.20;2.38;;;21.10;95.60;;;;;;5026865;28;20041;-77
2022/06/04 11:39:09;;;;;;;2.72;1.80;;;20.90;95.90;;;;;;5029016;28;20045;-77
2022/06/04 11:42:04;;;;;;;4.28;2.30;;;20.80;96.00;;;;;;5031194;28;20069;-77
2022/06/04 11:44:49;;;;;;;4.20;2.10;;;20.60;96.10;;;;;;5029811;28;20116;-76
2022/06/04 11:47:31;;;;;;;3.10;1.70;;;20.60;96.50;;;;;;5033298;28;20042;-77
2022/06/04 11:50:05;;;;;;;5.72;2.53;;;20.70;96.60;;;;;;5016563;28;20402;-77
2022/06/04 11:52:39;;;;;;;3.08;2.10;;;20.60;95.80;;;;;;5031652;28;20049;-75
2022/06/04 11:55:17;;;;;;;2.95;1.90;;;20.80;95.00;;;;;;5022942;28;20081;-76
2022/06/04 11:58:15;;;;;;;3.83;2.20;;;20.90;95.50;;;;;;5022790;28;20064;-76
2022/06/04 12:00:45;;;;;;;2.35;1.80;;;20.90;95.30;;;;;;5022763;28;20048;-77
2022/06/04 12:03:18;;;;;;;3.35;2.22;;;21.20;95.60;;;;;;5015186;28;20049;-76
2022/06/04 12:05:48;;;;;;;4.80;2.30;;;21.30;95.10;;;;;;5032915;28;20135;-77
2022/06/04 12:08:20;;;;;;;5.82;2.30;;;21.40;95.40;;;;;;5031038;28;20099;-76
2022/06/04 12:11:10;;;;;;;2.60;1.92;;;21.40;95.00;;;;;;5029592;28;20041;-76
2022/06/04 12:13:42;;;;;;;2.70;1.90;;;21.10;95.00;;;;;;5030027;28;20045;-75
2022/06/04 12:16:16;;;;;;;2.95;1.88;;;21.50;95.20;;;;;;5031089;28;20414;-77
2022/06/04 12:18:57;;;;;;;2.33;1.63;;;21.70;95.30;;;;;;5030756;28;20057;-75
2022/06/04 12:24:20;;;;;;;3.60;2.05;;;21.80;95.10;;;;;;5031076;28;20095;-76
2022/06/04 12:26:48;;;;;;;5.53;2.40;;;21.80;94.80;;;;;;5014587;28;20485;-75
2022/06/04 12:29:34;;;;;;;4.00;1.95;;;21.50;95.10;;;;;;5029783;28;20050;-76
2022/06/04 12:32:18;;;;;;;3.03;1.97;;;21.50;94.80;;;;;;5030829;28;20045;-76
2022/06/04 12:34:44;;;;;;;4.72;2.20;;;21.60;94.90;;;;;;5028625;28;20041;-76
2022/06/04 12:37:41;;;;;;;4.18;2.30;;;21.40;94.50;;;;;;5014420;28;20049;-76
2022/06/04 12:40:19;;;;;;;4.30;2.20;;;21.20;94.80;;;;;;5026676;28;20057;-76
2022/06/04 12:43:08;;;;;;;4.70;2.10;;;21.10;95.00;;;;;;5030397;28;20475;-76
2022/06/04 12:45:45;;;;;;;6.78;2.33;;;20.60;96.00;;;;;;5006292;28;20080;-76
2022/06/04 12:48:24;;;;;;;4.85;2.20;;;20.50;95.60;;;;;;5026668;28;20041;-78
2022/06/04 12:51:02;;;;;;;4.35;2.25;;;20.50;95.70;;;;;;5031780;28;20045;-76
2022/06/04 12:53:30;;;;;;;5.43;2.20;;;20.40;95.80;;;;;;5028607;28;20037;-76
2022/06/04 12:55:59;;;;;;;4.10;2.10;;;20.80;96.00;;;;;;4994564;28;20133;-76
2022/06/04 12:58:50;;;;;;;3.03;1.90;;;21.00;95.70;;;;;;5020007;28;20075;-76
2022/06/04 13:01:16;;;;;;;3.75;2.13;;;21.00;95.40;;;;;;5019106;28;20045;-76
2022/06/04 13:03:43;;;;;;;4.88;2.05;;;21.30;95.10;;;;;;5030248;28;20050;-75
2022/06/04 13:06:12;;;;;;;4.97;2.30;;;21.30;95.30;;;;;;5030281;28;20041;-76
2022/06/04 13:09:04;;;;;;;4.63;1.88;;;21.20;95.00;;;;;;5023001;28;20041;-77
2022/06/04 13:11:45;;;;;;;2.97;1.80;;;21.50;96.40;;;;;;5019567;28;20045;-76
2022/06/04 13:14:43;;;;;;;3.78;2.08;;;21.60;95.60;;;;;;5000216;28;20049;-77
2022/06/04 13:17:32;;;;;;;4.25;2.17;;;21.60;95.40;;;;;;5018279;28;20072;-76
2022/06/04 13:20:24;;;;;;;5.18;2.17;;;21.40;94.90;;;;;;5019597;28;20064;-77
2022/06/04 13:22:55;;;;;;;5.00;2.47;;;20.90;95.30;;;;;;5008155;28;20088;-76
2022/06/04 13:25:28;;;;;;;5.75;2.47;;;20.60;96.20;;;;;;5030009;28;20153;-76
2022/06/04 13:27:55;;;;;;;4.68;2.05;;;20.60;96.20;;;;;;5029955;28;20049;-77
2022/06/04 13:30:25;;;;;;;4.00;2.10;;;20.50;96.30;;;;;;5029176;28;20091;-77
2022/06/04 13:32:51;;;;;;;5.20;2.10;;;20.30;96.30;;;;;;5025590;28;20065;-76
2022/06/04 13:35:21;;;;;;;3.60;1.83;;;20.30;96.90;;;;;;5002287;28;20072;-76